Time;durP1;ratioP1;P1;durP2;ratioP2;P2;SDS_P1;SDS_P2;PMS_P1;PMS_P2;Temp;Humidity;BMP_temperature;BMP_pressure;BME280_temperature;BME280_humidity;BME280_pressure;Samples;Min_cycle;Max_cycle;Signal;HPM_P1;HPM_P2
2023/06/17 00:00:41;;;;;;;0.38;0.28;;;13.60;99.90;;;;;;5037358;28;20045;-89
2023/06/17 00:03:07;;;;;;;0.20;0.15;;;13.70;99.90;;;;;;5038855;28;20097;-88
2023/06/17 00:05:33;;;;;;;0.93;0.80;;;13.70;99.90;;;;;;5021041;28;20050;-88
2023/06/17 00:07:58;;;;;;;0.52;0.50;;;13.80;99.90;;;;;;5039149;28;20069;-88
2023/06/17 00:10:24;;;;;;;0.30;0.30;;;14.00;99.90;;;;;;5036950;28;20045;-88
2023/06/17 00:12:50;;;;;;;3.95;0.30;;;14.00;99.90;;;;;;5037441;28;20588;-89
2023/06/17 00:15:20;;;;;;;0.85;0.75;;;14.00;99.90;;;;;;5036515;28;20081;-88
2023/06/17 00:17:46;;;;;;;0.70;0.47;;;14.10;99.90;;;;;;5036844;28;20052;-88
2023/06/17 00:20:13;;;;;;;19.63;1.55;;;14.10;99.90;;;;;;5036764;28;20057;-89
2023/06/17 00:22:43;;;;;;;1.00;0.88;;;14.30;99.90;;;;;;5036669;28;20138;-89
2023/06/17 00:25:10;;;;;;;1.48;0.70;;;14.30;99.90;;;;;;5037720;28;20060;-89
2023/06/17 00:27:35;;;;;;;0.15;0.15;;;14.40;99.90;;;;;;5037906;28;20049;-89
2023/06/17 00:30:01;;;;;;;0.82;0.63;;;15.20;99.90;;;;;;5040229;28;20053;-89
2023/06/17 00:32:28;;;;;;;0.32;0.32;;;15.70;99.90;;;;;;5039423;28;20040;-89
2023/06/17 00:34:54;;;;;;;0.75;0.25;;;14.40;99.90;;;;;;5038696;28;20041;-89
2023/06/17 00:37:20;;;;;;;0.38;0.38;;;14.50;99.90;;;;;;5020685;28;20045;-89
2023/06/17 00:39:46;;;;;;;1.13;0.90;;;13.40;99.90;;;;;;5021091;28;20045;-89
2023/06/17 00:42:12;;;;;;;1.27;1.10;;;14.60;99.90;;;;;;5037097;28;20053;-88
2023/06/17 00:44:41;;;;;;;0.98;0.85;;;14.50;99.90;;;;;;5020128;28;20049;-91
2023/06/17 00:47:09;;;;;;;3.90;0.93;;;14.70;99.90;;;;;;5020402;28;20059;-87
2023/06/17 00:49:40;;;;;;;1.60;1.05;;;14.70;99.90;;;;;;5036724;28;20072;-88
2023/06/17 00:52:08;;;;;;;1.70;0.98;;;14.70;99.90;;;;;;5036999;28;20038;-88
2023/06/17 00:54:37;;;;;;;0.90;0.85;;;14.70;99.90;;;;;;5038707;28;20057;-88
2023/06/17 00:57:09;;;;;;;2.83;1.55;;;16.00;99.90;;;;;;5038215;28;20053;-88
2023/06/17 00:59:38;;;;;;;1.30;1.20;;;14.70;99.90;;;;;;5043040;28;20105;-88
2023/06/17 01:02:06;;;;;;;2.90;1.63;;;14.70;99.90;;;;;;5040980;28;20048;-89
2023/06/17 01:04:33;;;;;;;3.13;1.65;;;14.70;99.90;;;;;;5040768;28;20628;-88
2023/06/17 01:07:22;;;;;;;1.60;0.60;;;14.70;99.90;;;;;;5058499;28;20051;-88
2023/06/17 01:09:54;;;;;;;1.45;0.50;;;14.70;99.90;;;;;;5056050;28;20411;-88
2023/06/17 01:12:22;;;;;;;2.03;1.63;;;15.70;99.90;;;;;;5040379;28;20131;-88
2023/06/17 01:14:50;;;;;;;0.93;0.88;;;14.70;99.90;;;;;;5056537;28;20113;-89
2023/06/17 01:17:18;;;;;;;0.32;0.32;;;14.80;99.90;;;;;;5039405;28;20070;-89
2023/06/17 01:19:48;;;;;;;0.68;0.50;;;14.80;99.90;;;;;;5039991;28;20057;-88
2023/06/17 01:22:16;;;;;;;0.47;0.47;;;14.80;99.90;;;;;;5057763;28;20061;-88
2023/06/17 01:24:43;;;;;;;0.90;0.73;;;14.80;99.90;;;;;;5056307;28;20080;-88
2023/06/17 01:27:08;;;;;;;0.80;0.55;;;14.90;99.90;;;;;;5057506;28;20045;-88
2023/06/17 01:29:37;;;;;;;0.70;0.63;;;16.00;99.90;;;;;;5056770;28;20053;-88
2023/06/17 01:32:05;;;;;;;0.45;0.45;;;16.30;99.90;;;;;;5057159;28;20045;-88
2023/06/17 01:34:31;;;;;;;0.65;0.55;;;14.80;99.90;;;;;;5056700;28;20076;-88
2023/06/17 01:36:58;;;;;;;0.98;0.80;;;14.80;99.90;;;;;;5056713;28;20522;-88
2023/06/17 01:39:25;;;;;;;1.02;0.70;;;14.80;99.90;;;;;;5056886;28;20045;-88
2023/06/17 01:41:54;;;;;;;1.08;0.80;;;15.90;99.90;;;;;;5056496;28;20052;-88
2023/06/17 01:44:22;;;;;;;0.77;0.50;;;14.80;99.90;;;;;;5056351;28;20045;-88
2023/06/17 01:46:49;;;;;;;0.63;0.43;;;14.80;99.90;;;;;;5056646;28;20536;-88
2023/06/17 01:49:14;;;;;;;0.40;0.30;;;14.80;99.90;;;;;;5055905;28;20578;-88
2023/06/17 01:51:40;;;;;;;0.82;0.75;;;14.80;99.90;;;;;;5055880;28;20045;-88
2023/06/17 01:54:06;;;;;;;1.80;0.68;;;14.60;99.90;;;;;;5055365;28;20147;-89
2023/06/17 01:56:32;;;;;;;0.90;0.80;;;16.20;99.90;;;;;;5056878;28;20044;-89
2023/06/17 01:58:58;;;;;;;4.80;3.13;;;14.70;99.90;;;;;;5056161;28;20051;-89
2023/06/17 02:01:24;;;;;;;0.88;0.82;;;14.70;99.90;;;;;;5057620;28;20576;-88
2023/06/17 02:03:51;;;;;;;1.15;0.90;;;13.60;99.90;;;;;;5056497;28;20150;-88
2023/06/17 02:06:17;;;;;;;0.13;0.13;;;15.90;99.90;;;;;;5055623;28;20104;-88
2023/06/17 02:08:44;;;;;;;0.32;0.32;;;14.60;99.90;;;;;;5038502;28;20499;-88
2023/06/17 02:11:10;;;;;;;0.52;0.52;;;13.60;99.90;;;;;;5057297;28;20087;-88
2023/06/17 02:13:35;;;;;;;1.23;0.90;;;14.60;99.90;;;;;;5056389;28;20048;-88
2023/06/17 02:16:01;;;;;;;10.57;1.42;;;15.80;99.90;;;;;;5056073;28;20075;-89
2023/06/17 02:18:27;;;;;;;1.92;1.23;;;14.30;99.90;;;;;;5056988;28;20056;-89
2023/06/17 02:20:53;;;;;;;2.70;1.10;;;15.50;99.90;;;;;;5057948;28;20087;-88
2023/06/17 02:23:19;;;;;;;2.67;1.55;;;14.70;99.90;;;;;;5042077;28;20221;-88
2023/06/17 02:25:45;;;;;;;2.97;1.27;;;16.00;99.90;;;;;;5060526;28;20080;-89
2023/06/17 02:28:10;;;;;;;1.95;1.77;;;14.90;99.90;;;;;;5060849;28;20075;-88
2023/06/17 02:30:36;;;;;;;1.25;1.05;;;15.60;99.90;;;;;;5059362;28;20127;-88
2023/06/17 02:33:03;;;;;;;2.75;0.95;;;15.30;99.90;;;;;;5058312;28;20111;-89
2023/06/17 02:35:28;;;;;;;0.60;0.60;;;14.50;99.90;;;;;;5060148;28;20045;-89
2023/06/17 02:37:55;;;;;;;0.85;0.80;;;14.50;99.90;;;;;;5057941;28;20056;-89
2023/06/17 02:40:21;;;;;;;1.55;1.27;;;14.50;99.90;;;;;;5059211;28;20049;-89
2023/06/17 02:42:47;;;;;;;0.30;0.28;;;14.50;99.90;;;;;;5059777;28;20482;-89
2023/06/17 02:45:12;;;;;;;0.45;0.38;;;13.80;99.90;;;;;;5058542;28;20040;-88
2023/06/17 02:47:39;;;;;;;11.15;0.90;;;14.50;99.90;;;;;;5057954;28;20045;-89
2023/06/17 02:50:06;;;;;;;2.60;1.35;;;14.50;99.90;;;;;;5057528;28;20466;-88
2023/06/17 02:52:34;;;;;;;0.73;0.68;;;14.50;99.90;;;;;;5057182;28;20052;-89
2023/06/17 02:55:00;;;;;;;0.25;0.20;;;14.50;99.90;;;;;;5056973;28;20053;-89
2023/06/17 02:57:26;;;;;;;0.93;0.82;;;14.50;99.90;;;;;;5057406;28;20068;-89
2023/06/17 02:59:52;;;;;;;0.65;0.65;;;15.00;99.90;;;;;;5058229;28;20111;-89
2023/06/17 03:02:18;;;;;;;1.13;0.70;;;15.60;99.90;;;;;;5058318;28;20041;-89
2023/06/17 03:04:45;;;;;;;5.90;2.58;;;14.60;99.90;;;;;;5058075;28;20491;-89
2023/06/17 03:07:15;;;;;;;0.85;0.77;;;15.00;99.90;;;;;;5059857;28;20195;-88
2023/06/17 03:09:41;;;;;;;1.98;1.20;;;14.50;99.90;;;;;;5041690;28;20560;-89
2023/06/17 03:12:08;;;;;;;2.50;2.10;;;14.60;99.90;;;;;;5058142;28;20052;-88
2023/06/17 03:14:33;;;;;;;0.30;0.17;;;14.60;99.90;;;;;;5059236;28;20040;-89
2023/06/17 03:17:00;;;;;;;1.40;1.05;;;14.60;99.90;;;;;;5057928;28;20063;-89
2023/06/17 03:19:27;;;;;;;3.10;0.90;;;14.60;99.90;;;;;;5057388;28;20097;-89
2023/06/17 03:21:52;;;;;;;2.92;1.25;;;14.60;99.90;;;;;;5040987;28;20067;-89
2023/06/17 03:24:19;;;;;;;0.85;0.75;;;15.70;99.90;;;;;;5057652;28;20074;-89
2023/06/17 03:26:45;;;;;;;0.90;0.80;;;15.60;99.90;;;;;;5059759;28;20140;-89
2023/06/17 03:29:11;;;;;;;2.08;1.17;;;14.70;99.90;;;;;;5058090;28;20041;-89
2023/06/17 03:31:37;;;;;;;3.08;1.13;;;15.80;99.90;;;;;;5057227;28;20051;-89
2023/06/17 03:34:02;;;;;;;1.92;1.10;;;15.60;99.90;;;;;;5059187;28;20131;-89
2023/06/17 03:36:29;;;;;;;1.30;1.20;;;15.60;99.90;;;;;;5058277;28;20045;-89
2023/06/17 03:38:56;;;;;;;0.73;0.73;;;14.70;99.90;;;;;;5056609;28;20100;-89
2023/06/17 03:41:26;;;;;;;2.53;1.83;;;15.30;99.90;;;;;;5049405;28;20091;-88
2023/06/17 03:43:52;;;;;;;4.28;2.35;;;13.60;99.90;;;;;;5048417;28;20136;-89
2023/06/17 03:46:18;;;;;;;1.98;1.85;;;14.80;99.90;;;;;;5047610;28;20128;-89
2023/06/17 03:48:44;;;;;;;0.75;0.68;;;14.70;99.90;;;;;;5049458;28;20344;-89
2023/06/17 03:51:11;;;;;;;1.60;1.20;;;14.80;99.90;;;;;;5047652;28;20051;-89
2023/06/17 03:53:36;;;;;;;3.63;0.65;;;14.80;99.90;;;;;;5047368;28;20045;-89
2023/06/17 03:56:02;;;;;;;0.93;0.88;;;14.80;99.90;;;;;;5047599;28;20045;-89
2023/06/17 03:58:28;;;;;;;0.45;0.32;;;14.80;99.90;;;;;;5047700;28;20056;-89
2023/06/17 04:00:54;;;;;;;1.05;0.95;;;16.30;99.90;;;;;;5047626;28;20040;-89
2023/06/17 04:03:24;;;;;;;1.33;0.70;;;15.90;99.90;;;;;;5031325;28;20581;-89
2023/06/17 04:05:53;;;;;;;0.80;0.70;;;15.00;99.90;;;;;;5049648;28;20057;-89
2023/06/17 04:08:22;;;;;;;1.10;0.82;;;15.00;99.90;;;;;;5049173;28;20049;-89
2023/06/17 04:10:48;;;;;;;2.42;1.75;;;15.80;99.90;;;;;;5046960;28;20075;-89
2023/06/17 04:13:14;;;;;;;1.58;0.73;;;16.10;99.90;;;;;;5048748;28;20079;-89
2023/06/17 04:15:41;;;;;;;0.90;0.57;;;15.00;99.90;;;;;;5047217;28;20503;-89
2023/06/17 04:18:06;;;;;;;1.10;0.95;;;15.00;99.90;;;;;;5047263;28;20126;-89
2023/06/17 04:20:34;;;;;;;0.20;0.20;;;15.10;99.90;;;;;;5048412;28;20048;-89
2023/06/17 04:23:00;;;;;;;1.13;1.02;;;16.30;99.90;;;;;;5047277;28;20816;-89
2023/06/17 04:25:27;;;;;;;2.72;1.08;;;15.10;99.90;;;;;;5048577;28;20132;-89
2023/06/17 04:27:56;;;;;;;2.10;1.73;;;15.20;99.90;;;;;;5047512;28;20127;-89
2023/06/17 04:30:21;;;;;;;2.75;1.08;;;15.20;99.90;;;;;;5049798;28;20118;-89
2023/06/17 04:32:47;;;;;;;0.63;0.43;;;15.70;99.90;;;;;;5049224;28;20492;-88
2023/06/17 04:35:13;;;;;;;0.88;0.80;;;15.20;99.90;;;;;;5046489;28;20045;-88
2023/06/17 04:37:40;;;;;;;0.17;0.17;;;16.30;99.90;;;;;;5046188;28;20041;-88
2023/06/17 04:40:10;;;;;;;3.20;0.90;;;15.30;99.90;;;;;;5048280;28;20053;-89
2023/06/17 04:42:36;;;;;;;0.77;0.77;;;15.20;99.90;;;;;;5047431;28;20060;-89
2023/06/17 04:45:02;;;;;;;1.88;1.67;;;15.20;99.90;;;;;;5047274;28;20083;-88
2023/06/17 04:47:28;;;;;;;0.75;0.75;;;15.20;99.90;;;;;;5047975;28;20057;-89
2023/06/17 04:49:55;;;;;;;0.52;0.52;;;15.30;99.90;;;;;;5047235;28;20127;-88
2023/06/17 04:52:24;;;;;;;1.98;1.50;;;15.10;99.90;;;;;;5048259;28;20059;-89
2023/06/17 04:54:51;;;;;;;1.33;1.23;;;15.10;99.90;;;;;;5046592;28;20063;-88
2023/06/17 04:57:17;;;;;;;1.70;0.80;;;15.10;99.90;;;;;;5046608;28;20040;-88
2023/06/17 04:59:43;;;;;;;5.35;2.10;;;16.40;99.90;;;;;;5050619;28;20062;-89
2023/06/17 05:02:10;;;;;;;0.38;0.22;;;15.20;99.90;;;;;;5051242;28;20499;-88
2023/06/17 05:04:35;;;;;;;2.47;0.70;;;16.10;99.90;;;;;;5048251;28;20494;-88
2023/06/17 05:07:01;;;;;;;1.33;1.08;;;15.40;99.90;;;;;;5048482;28;20056;-89
2023/06/17 05:09:27;;;;;;;1.88;0.65;;;15.60;99.90;;;;;;5053854;28;20065;-88
2023/06/17 05:11:53;;;;;;;1.20;1.10;;;16.60;99.90;;;;;;5061952;28;20102;-89
2023/06/17 05:14:19;;;;;;;2.22;0.65;;;16.40;99.90;;;;;;5048515;28;20149;-88
2023/06/17 05:16:44;;;;;;;1.70;1.15;;;16.90;99.90;;;;;;5046255;28;20045;-89
2023/06/17 05:19:10;;;;;;;2.05;1.67;;;15.70;99.90;;;;;;5048464;28;20053;-89
2023/06/17 05:21:36;;;;;;;3.50;1.50;;;15.30;99.90;;;;;;5048491;28;20056;-89
2023/06/17 05:24:02;;;;;;;15.98;3.03;;;16.70;99.90;;;;;;5045863;28;20045;-89
2023/06/17 05:26:27;;;;;;;0.75;0.47;;;15.60;99.90;;;;;;5045844;28;20096;-89
2023/06/17 05:28:53;;;;;;;1.77;0.90;;;15.50;71.70;;;;;;5045632;28;20045;-89
2023/06/17 05:31:19;;;;;;;2.58;1.25;;;16.30;27.40;;;;;;5045803;28;20432;-88
2023/06/17 05:33:45;;;;;;;1.30;1.15;;;15.60;99.90;;;;;;5045421;28;20146;-88
2023/06/17 05:36:15;;;;;;;3.70;2.08;;;15.60;99.90;;;;;;5045730;28;20120;-88
2023/06/17 05:38:40;;;;;;;0.55;0.50;;;15.70;99.90;;;;;;5045245;28;20048;-88
2023/06/17 05:41:06;;;;;;;1.98;1.10;;;16.70;99.90;;;;;;5046836;28;20045;-89
2023/06/17 05:43:32;;;;;;;0.85;0.82;;;16.60;99.90;;;;;;5047237;28;20052;-88
2023/06/17 05:45:57;;;;;;;4.43;2.03;;;15.70;99.90;;;;;;5045118;28;20044;-89
2023/06/17 05:48:23;;;;;;;0.88;0.82;;;15.80;99.90;;;;;;5045191;28;20041;-88
2023/06/17 05:50:49;;;;;;;0.60;0.60;;;17.10;99.90;;;;;;5046697;28;20037;-88
2023/06/17 05:53:15;;;;;;;1.15;1.00;;;16.00;98.60;;;;;;5047047;28;20045;-88
2023/06/17 05:55:41;;;;;;;2.50;1.75;;;16.00;28.60;;;;;;5049679;28;20056;-88
2023/06/17 05:58:07;;;;;;;0.70;0.55;;;16.00;10.50;;;;;;5049497;28;20383;-88
2023/06/17 06:00:32;;;;;;;1.02;0.75;;;17.10;1.00;;;;;;5049159;28;20048;-88
2023/06/17 06:02:58;;;;;;;1.20;1.10;;;16.00;1.00;;;;;;5049203;28;20399;-88
2023/06/17 06:05:24;;;;;;;0.98;0.88;;;16.10;1.00;;;;;;5049251;28;20073;-88
2023/06/17 06:07:49;;;;;;;0.65;0.63;;;16.20;1.00;;;;;;5050389;28;20041;-88
2023/06/17 06:10:15;;;;;;;0.82;0.68;;;16.30;1.00;;;;;;5050802;28;20076;-89
2023/06/17 06:12:41;;;;;;;0.52;0.47;;;16.40;1.00;;;;;;5050883;28;20492;-88
2023/06/17 06:15:07;;;;;;;1.55;0.85;;;16.50;99.90;;;;;;5049264;28;20491;-88
2023/06/17 06:17:33;;;;;;;5.20;0.82;;;16.60;5.50;;;;;;5049126;28;20055;-88
2023/06/17 06:19:59;;;;;;;1.63;1.17;;;17.20;99.90;;;;;;5049085;28;20045;-88
2023/06/17 06:22:25;;;;;;;0.90;0.55;;;16.60;99.90;;;;;;5048806;28;20063;-88
2023/06/17 06:24:50;;;;;;;3.08;1.50;;;16.80;99.90;;;;;;5049154;28;20110;-88
2023/06/17 06:27:16;;;;;;;2.08;1.05;;;17.50;99.90;;;;;;5050400;28;20076;-88
2023/06/17 06:29:42;;;;;;;1.35;1.13;;;16.50;99.90;;;;;;5050427;28;20049;-88
2023/06/17 06:32:08;;;;;;;2.22;1.17;;;16.40;37.10;;;;;;5048585;28;20056;-88
2023/06/17 06:34:34;;;;;;;1.77;1.67;;;16.60;1.00;;;;;;5050161;28;20045;-88
2023/06/17 06:37:00;;;;;;;0.95;0.68;;;17.10;1.00;;;;;;5050145;28;20041;-88
2023/06/17 06:39:26;;;;;;;1.80;1.13;;;17.40;99.90;;;;;;5048722;28;20063;-88
2023/06/17 06:41:52;;;;;;;1.67;1.40;;;17.10;99.90;;;;;;5048642;28;20056;-89
2023/06/17 06:44:18;;;;;;;9.70;1.63;;;17.20;99.90;;;;;;5049951;28;20822;-89
2023/06/17 06:46:45;;;;;;;0.95;0.82;;;17.10;99.90;;;;;;5048981;28;20070;-89
2023/06/17 06:49:11;;;;;;;0.93;0.57;;;17.20;1.00;;;;;;5048629;28;20048;-89
2023/06/17 06:51:37;;;;;;;2.45;1.05;;;17.30;21.20;;;;;;5048799;28;20049;-89
2023/06/17 06:54:03;;;;;;;0.65;0.65;;;17.40;1.00;;;;;;5048441;28;20049;-89
2023/06/17 06:56:29;;;;;;;1.60;0.73;;;17.30;99.90;;;;;;5048465;28;20088;-88
2023/06/17 06:58:57;;;;;;;1.15;1.05;;;17.60;1.00;;;;;;5048190;28;20084;-89
2023/06/17 07:01:26;;;;;;;4.57;0.40;;;18.20;99.90;;;;;;5049868;28;20048;-87
2023/06/17 07:03:52;;;;;;;2.55;1.00;;;18.10;99.90;;;;;;5048420;28;20052;-88
2023/06/17 07:06:18;;;;;;;1.65;1.33;;;17.70;1.00;;;;;;5054211;28;20053;-84
2023/06/17 07:08:43;;;;;;;0.77;0.68;;;17.80;99.90;;;;;;5051915;28;20061;-84
2023/06/17 07:11:09;;;;;;;0.70;0.65;;;18.20;27.10;;;;;;5050546;28;20162;-84
2023/06/17 07:13:35;;;;;;;2.35;1.27;;;18.40;99.90;;;;;;5047148;28;20139;-84
2023/06/17 07:16:01;;;;;;;0.75;0.60;;;18.20;99.90;;;;;;5031891;28;20092;-84
2023/06/17 07:18:28;;;;;;;3.30;1.25;;;18.20;1.00;;;;;;5031560;28;20061;-84
2023/06/17 07:20:54;;;;;;;2.22;0.93;;;18.40;99.90;;;;;;5029286;28;20068;-84
2023/06/17 07:23:19;;;;;;;0.17;0.13;;;18.20;1.00;;;;;;5027139;28;20543;-84
2023/06/17 07:25:45;;;;;;;1.08;0.95;;;18.40;99.90;;;;;;5028538;28;20045;-84
2023/06/17 07:28:12;;;;;;;1.35;0.88;;;18.60;99.90;;;;;;5027070;28;20072;-84
2023/06/17 07:30:38;;;;;;;2.17;1.25;;;18.70;99.90;;;;;;5030623;28;20057;-84
2023/06/17 07:33:05;;;;;;;1.50;0.93;;;18.80;1.00;;;;;;5030743;28;20055;-84
2023/06/17 07:35:30;;;;;;;0.95;0.70;;;18.90;4.90;;;;;;5026691;28;20510;-84
2023/06/17 07:37:56;;;;;;;2.28;1.60;;;19.10;99.90;;;;;;5026415;28;20049;-85
2023/06/17 07:40:22;;;;;;;1.83;0.60;;;20.30;99.90;;;;;;5027563;28;20056;-84
2023/06/17 07:42:48;;;;;;;1.08;0.50;;;19.90;99.90;;;;;;5028013;28;20096;-84
2023/06/17 07:45:14;;;;;;;1.55;0.75;;;20.40;99.90;;;;;;5028089;28;20049;-85
2023/06/17 07:47:39;;;;;;;1.13;0.55;;;20.70;99.90;;;;;;5028769;28;20111;-84
2023/06/17 07:50:08;;;;;;;0.57;0.47;;;21.30;99.90;;;;;;5029645;28;20045;-85
2023/06/17 07:52:35;;;;;;;0.55;0.52;;;22.80;99.90;;;;;;5026179;28;20045;-84
2023/06/17 07:55:01;;;;;;;0.70;0.57;;;23.20;1.00;;;;;;5027224;28;20145;-85
2023/06/17 07:57:27;;;;;;;1.75;1.38;;;23.80;1.00;;;;;;5048986;28;20061;-84
2023/06/17 07:59:52;;;;;;;1.63;1.42;;;24.30;1.00;;;;;;5027253;28;20037;-85
2023/06/17 08:02:18;;;;;;;2.10;1.27;;;25.00;99.90;;;;;;5027376;28;20095;-85
2023/06/17 08:04:44;;;;;;;0.82;0.63;;;24.90;99.90;;;;;;5026917;28;20081;-85
2023/06/17 08:07:11;;;;;;;0.43;0.43;;;25.00;99.90;;;;;;5027535;28;20045;-84
2023/06/17 08:09:37;;;;;;;0.98;0.55;;;25.10;99.90;;;;;;5025904;28;20570;-84
2023/06/17 08:12:03;;;;;;;0.43;0.40;;;25.10;99.90;;;;;;5026087;28;20045;-84
2023/06/17 08:14:29;;;;;;;3.05;0.80;;;25.50;99.90;;;;;;5026360;28;20242;-84
2023/06/17 08:16:55;;;;;;;3.13;1.50;;;26.20;99.90;;;;;;5025768;28;20535;-85
2023/06/17 08:19:21;;;;;;;1.45;0.88;;;26.70;99.90;;;;;;5025810;28;20042;-85
2023/06/17 08:21:46;;;;;;;6.30;1.20;;;26.70;99.90;;;;;;5026338;28;20093;-84
2023/06/17 08:24:20;;;;;;;1.52;1.17;;;27.00;99.90;;;;;;5026118;28;20041;-84
2023/06/17 08:26:46;;;;;;;1.13;0.95;;;27.90;99.90;;;;;;5025696;28;20045;-84
2023/06/17 08:29:15;;;;;;;2.58;1.25;;;28.60;99.90;;;;;;5025577;28;20048;-84
2023/06/17 08:31:45;;;;;;;4.78;2.38;;;28.90;99.90;;;;;;5025509;28;20119;-84
2023/06/17 08:34:12;;;;;;;0.45;0.43;;;29.10;99.90;;;;;;5025158;28;20595;-84
2023/06/17 08:36:42;;;;;;;4.60;1.52;;;28.50;99.90;;;;;;5024034;28;20053;-84
2023/06/17 08:39:10;;;;;;;0.68;0.63;;;28.40;99.90;;;;;;5057026;28;20053;-84
2023/06/17 08:41:40;;;;;;;1.27;0.93;;;27.80;99.90;;;;;;5024824;28;20049;-84
2023/06/17 08:44:08;;;;;;;0.57;0.57;;;27.60;99.90;;;;;;5025072;28;20049;-84
2023/06/17 08:46:34;;;;;;;0.40;0.30;;;29.30;99.90;;;;;;5024429;28;20080;-84
2023/06/17 08:49:02;;;;;;;2.35;1.05;;;30.00;99.90;;;;;;5023053;28;20622;-84
2023/06/17 08:51:28;;;;;;;0.55;0.40;;;30.00;99.90;;;;;;5024777;28;20057;-84
2023/06/17 08:53:55;;;;;;;0.70;0.55;;;29.80;99.90;;;;;;5024491;28;20092;-84
2023/06/17 08:56:21;;;;;;;1.48;1.23;;;29.50;99.90;;;;;;5024289;28;20060;-84
2023/06/17 08:58:47;;;;;;;0.57;0.57;;;30.10;99.90;;;;;;5024128;28;20056;-84
2023/06/17 09:01:14;;;;;;;0.82;0.63;;;30.80;99.90;;;;;;5056105;28;20128;-85
2023/06/17 09:03:43;;;;;;;3.72;1.65;;;31.10;99.90;;;;;;5057157;28;20042;-85
2023/06/17 09:06:28;;;;;;;0.50;0.50;;;30.70;99.90;;;;;;5025288;28;20103;-84
2023/06/17 09:08:56;;;;;;;3.05;1.02;;;31.40;99.90;;;;;;5024131;28;20598;-84
2023/06/17 09:11:30;;;;;;;2.50;1.00;;;31.50;99.90;;;;;;5056135;28;20072;-84
2023/06/17 09:13:58;;;;;;;0.65;0.47;;;32.00;99.90;;;;;;5024810;28;20045;-85
2023/06/17 09:16:27;;;;;;;0.70;0.57;;;31.80;99.90;;;;;;5024518;28;20145;-83
2023/06/17 09:19:00;;;;;;;0.98;0.68;;;32.10;99.90;;;;;;5024161;28;20168;-84
2023/06/17 09:21:27;;;;;;;0.98;0.70;;;31.90;99.90;;;;;;5024581;28;20049;-84
2023/06/17 09:23:58;;;;;;;2.85;0.82;;;32.30;99.90;;;;;;5022824;28;20045;-84
2023/06/17 09:26:35;;;;;;;0.25;0.25;;;32.70;99.90;;;;;;5055748;28;20143;-84
2023/06/17 09:29:01;;;;;;;1.50;0.88;;;33.20;99.90;;;;;;5022572;28;20089;-84
2023/06/17 09:31:28;;;;;;;1.65;1.08;;;32.90;99.90;;;;;;5024033;28;20404;-84
2023/06/17 09:33:55;;;;;;;1.15;0.98;;;31.90;99.90;;;;;;5056187;28;20064;-84
2023/06/17 09:36:22;;;;;;;2.60;1.13;;;32.30;99.90;;;;;;5024751;28;20111;-84
2023/06/17 09:38:50;;;;;;;0.30;0.30;;;31.90;99.90;;;;;;5024422;28;20049;-84
2023/06/17 09:41:18;;;;;;;0.57;0.57;;;32.30;99.90;;;;;;5023759;28;20041;-85
2023/06/17 09:43:53;;;;;;;0.70;0.60;;;33.00;99.90;;;;;;5024438;28;20053;-85
2023/06/17 09:46:29;;;;;;;0.40;0.35;;;33.10;99.90;;;;;;5024124;28;20049;-84
2023/06/17 09:48:57;;;;;;;3.35;1.30;;;32.80;99.90;;;;;;5039394;28;20045;-85
2023/06/17 09:51:23;;;;;;;0.63;0.50;;;32.30;99.90;;;;;;5024174;28;20056;-84
2023/06/17 09:53:54;;;;;;;3.25;1.10;;;31.40;99.90;;;;;;5022313;28;20046;-84
2023/06/17 09:56:20;;;;;;;0.85;0.47;;;30.40;99.90;;;;;;5023994;28;20050;-84
2023/06/17 09:58:47;;;;;;;0.77;0.77;;;30.60;99.90;;;;;;5024390;28;20049;-85
2023/06/17 10:01:13;;;;;;;1.45;1.30;;;30.60;99.90;;;;;;5024075;28;20405;-84
2023/06/17 10:03:41;;;;;;;0.45;0.43;;;30.20;99.90;;;;;;5056336;28;20392;-84
2023/06/17 10:06:09;;;;;;;1.10;0.75;;;30.00;99.90;;;;;;5022778;28;20052;-84
2023/06/17 10:08:37;;;;;;;7.13;1.05;;;29.60;99.90;;;;;;5022633;28;20045;-84
2023/06/17 10:11:03;;;;;;;8.05;1.35;;;29.70;99.90;;;;;;5025727;28;20120;-88
2023/06/17 10:13:35;;;;;;;2.47;1.33;;;29.50;99.90;;;;;;5024468;28;20516;-88
2023/06/17 10:16:07;;;;;;;2.42;1.05;;;29.30;99.90;;;;;;5024537;28;20057;-88
2023/06/17 10:18:36;;;;;;;0.68;0.65;;;28.40;99.90;;;;;;5026569;28;20049;-87
2023/06/17 10:21:03;;;;;;;2.00;1.25;;;28.80;99.90;;;;;;5058073;28;20051;-88
2023/06/17 10:23:30;;;;;;;3.83;1.17;;;28.70;99.90;;;;;;5024955;28;20057;-89
2023/06/17 10:25:56;;;;;;;0.73;0.60;;;28.70;99.90;;;;;;5025291;28;20053;-88
2023/06/17 10:28:22;;;;;;;0.80;0.60;;;28.40;99.90;;;;;;5025321;28;20060;-88
2023/06/17 10:30:51;;;;;;;0.73;0.68;;;28.00;99.90;;;;;;5025548;28;20041;-88
2023/06/17 10:33:27;;;;;;;3.55;0.85;;;28.00;99.90;;;;;;5042394;28;20403;-88
2023/06/17 10:36:07;;;;;;;0.98;0.85;;;28.30;99.90;;;;;;5026368;28;20389;-87
2023/06/17 10:38:34;;;;;;;0.40;0.40;;;28.60;99.90;;;;;;5037993;28;20123;-87
2023/06/17 10:40:59;;;;;;;2.45;1.20;;;28.70;99.90;;;;;;5028342;28;20053;-87
2023/06/17 10:43:25;;;;;;;1.48;0.90;;;28.80;99.90;;;;;;5029822;28;20067;-88
2023/06/17 10:45:54;;;;;;;0.45;0.45;;;28.50;99.90;;;;;;5029935;28;20081;-88
2023/06/17 10:48:24;;;;;;;0.77;0.77;;;28.90;99.90;;;;;;5028242;28;20124;-88
2023/06/17 10:50:52;;;;;;;0.65;0.52;;;28.90;99.90;;;;;;5061590;28;20049;-88
2023/06/17 10:53:25;;;;;;;2.60;0.60;;;29.20;99.90;;;;;;5061732;28;20081;-88
2023/06/17 10:55:50;;;;;;;0.40;0.25;;;29.40;99.90;;;;;;5029265;28;20056;-88
2023/06/17 10:58:16;;;;;;;0.30;0.30;;;29.40;99.90;;;;;;5029203;28;20049;-88
2023/06/17 11:00:42;;;;;;;0.52;0.52;;;29.20;99.90;;;;;;5029285;28;20402;-88
2023/06/17 11:03:09;;;;;;;4.90;0.90;;;29.10;99.90;;;;;;5029310;28;20049;-88
2023/06/17 11:05:37;;;;;;;0.52;0.45;;;29.40;99.90;;;;;;5029402;28;20076;-88
2023/06/17 11:08:04;;;;;;;0.43;0.30;;;29.60;99.90;;;;;;5061250;28;20052;-88
2023/06/17 11:10:30;;;;;;;1.75;1.05;;;29.70;99.90;;;;;;5028974;28;20091;-88
2023/06/17 11:12:56;;;;;;;0.80;0.63;;;29.70;99.90;;;;;;5027681;28;20473;-88
2023/06/17 11:15:22;;;;;;;2.03;1.10;;;29.70;99.90;;;;;;5044430;28;20049;-88
2023/06/17 11:17:58;;;;;;;2.03;0.80;;;29.80;99.90;;;;;;5029225;28;20412;-88
2023/06/17 11:20:23;;;;;;;1.23;1.08;;;29.90;99.90;;;;;;5027915;28;20041;-88
2023/06/17 11:22:49;;;;;;;7.63;1.48;;;30.00;99.90;;;;;;5027898;28;20523;-88
2023/06/17 11:25:16;;;;;;;1.15;0.98;;;30.00;99.90;;;;;;5029532;28;20049;-88
2023/06/17 11:27:44;;;;;;;0.32;0.30;;;30.30;99.90;;;;;;5060924;28;20510;-88
2023/06/17 11:30:12;;;;;;;2.45;0.98;;;30.50;99.90;;;;;;5029523;28;20050;-88
2023/06/17 11:32:41;;;;;;;1.38;0.90;;;30.70;99.90;;;;;;5029990;28;20053;-88
2023/06/17 11:35:08;;;;;;;0.82;0.38;;;30.50;99.90;;;;;;5028447;28;20132;-88
2023/06/17 11:37:36;;;;;;;4.15;1.63;;;30.80;99.90;;;;;;5043993;28;20121;-90
2023/06/17 11:40:06;;;;;;;0.60;0.52;;;30.60;99.90;;;;;;5029833;28;20049;-90
2023/06/17 11:42:32;;;;;;;1.48;1.13;;;31.60;99.90;;;;;;5029694;28;20058;-90
2023/06/17 11:44:58;;;;;;;0.80;0.50;;;31.40;99.90;;;;;;5029015;28;20048;-90
2023/06/17 11:47:35;;;;;;;1.63;0.95;;;32.00;99.90;;;;;;5011156;28;20053;-91
2023/06/17 11:50:03;;;;;;;1.02;0.93;;;33.10;99.90;;;;;;5027562;28;20041;-91
2023/06/17 11:52:29;;;;;;;0.43;0.38;;;33.90;99.90;;;;;;5027778;28;20041;-91
2023/06/17 11:54:55;;;;;;;0.70;0.40;;;34.50;99.90;;;;;;5061604;28;20103;-92
2023/06/17 11:57:23;;;;;;;0.77;0.77;;;35.10;99.90;;;;;;5028604;28;20060;-91
2023/06/17 11:59:50;;;;;;;1.20;0.85;;;34.50;99.90;;;;;;5027934;28;20053;-91
2023/06/17 12:02:16;;;;;;;0.73;0.60;;;34.40;99.90;;;;;;5029310;28;20148;-91
2023/06/17 12:04:46;;;;;;;0.55;0.38;;;34.90;99.90;;;;;;5027779;28;20129;-91
2023/06/17 12:07:12;;;;;;;1.27;0.77;;;35.20;99.90;;;;;;5028109;28;20503;-91
2023/06/17 12:09:48;;;;;;;2.40;1.23;;;34.40;99.90;;;;;;5027009;28;20055;-92
2023/06/17 12:12:28;;;;;;;1.13;0.75;;;34.00;99.90;;;;;;5060553;28;20103;-91
2023/06/17 12:15:04;;;;;;;1.63;0.85;;;34.60;99.90;;;;;;5027596;28;20377;-91
2023/06/17 12:17:42;;;;;;;1.40;0.73;;;34.80;99.90;;;;;;5027626;28;20045;-91
2023/06/17 12:20:18;;;;;;;0.73;0.50;;;35.20;99.90;;;;;;5010760;28;20087;-92
2023/06/17 12:22:45;;;;;;;0.80;0.60;;;34.60;99.90;;;;;;5027253;28;20107;-92
2023/06/17 12:25:11;;;;;;;0.52;0.35;;;35.10;99.90;;;;;;5028606;28;20060;-91
2023/06/17 12:27:38;;;;;;;0.63;0.60;;;35.20;99.90;;;;;;5028604;28;20049;-91
2023/06/17 12:30:05;;;;;;;0.60;0.43;;;34.90;92.60;;;;;;5028616;28;20049;-91
2023/06/17 12:32:31;;;;;;;1.60;1.08;;;35.20;94.60;;;;;;5027043;28;20045;-91
2023/06/17 12:34:57;;;;;;;0.38;0.20;;;35.60;96.60;;;;;;5029249;28;20045;-91
2023/06/17 12:37:27;;;;;;;1.00;0.47;;;35.70;94.00;;;;;;5027851;28;20124;-91
2023/06/17 12:39:57;;;;;;;1.65;0.70;;;35.80;86.30;;;;;;5029053;28;20411;-91
2023/06/17 12:42:22;;;;;;;1.10;0.55;;;35.60;90.10;;;;;;5028874;28;20044;-91
2023/06/17 12:44:49;;;;;;;1.90;1.20;;;35.40;89.00;;;;;;5011574;28;20045;-91
2023/06/17 12:47:15;;;;;;;2.72;1.65;;;36.50;99.90;;;;;;5029451;28;20099;-91